Sipesville, Pennsylvania
Current Conditions -  °F | °C
As of 12:54 AM on Friday 31 Oct 2014 (Local Time) from KJST Reporting Station
Overcast Overcast  
Wind Chill: 40°   Ceiling: 3400
Heat Index: 40°   Visibility: 10mi
Dew Point: 36°   Wind: 0mph
Humidity: 86%   Direction: NA
Pressure: 30"   Gusts: NA
Location:  40.1°N, 79.09°W
Report Text: KJST 310454Z AUTO 00000KT 10SM FEW029 OVC034 04/02 A3000 RMK AO2 SLP172 T00440022 400720039
Loading
Personal Weather Stations






























Interactive Weather Map
Tropical Storm Tracking
New forecast layout! Learn more

10-Day Weather Forecast

Advertisements
Track Severe Weather on mobile